sensor_id;sensor_type;location;lat;lon;timestamp;P1;durP1;ratioP1;P2;durP2;ratioP2
25946;SDS011;13745;51.470;9.894;2022-12-07T00:01:31;16.30;;;8.85;;
25946;SDS011;13745;51.470;9.894;2022-12-07T00:04:19;14.68;;;9.55;;
25946;SDS011;13745;51.470;9.894;2022-12-07T00:07:05;15.20;;;9.38;;
25946;SDS011;13745;51.470;9.894;2022-12-07T00:09:50;13.00;;;9.40;;
25946;SDS011;13745;51.470;9.894;2022-12-07T00:12:36;14.90;;;9.57;;
25946;SDS011;13745;51.470;9.894;2022-12-07T00:15:22;16.95;;;9.82;;
25946;SDS011;13745;51.470;9.894;2022-12-07T00:18:08;13.25;;;8.98;;
25946;SDS011;13745;51.470;9.894;2022-12-07T00:20:59;13.65;;;8.52;;
25946;SDS011;13745;51.470;9.894;2022-12-07T00:23:47;16.77;;;9.67;;
25946;SDS011;13745;51.470;9.894;2022-12-07T00:26:35;16.02;;;9.52;;
25946;SDS011;13745;51.470;9.894;2022-12-07T00:29:22;17.27;;;9.70;;
25946;SDS011;13745;51.470;9.894;2022-12-07T00:32:08;14.38;;;9.35;;
25946;SDS011;13745;51.470;9.894;2022-12-07T00:34:54;16.52;;;10.30;;
25946;SDS011;13745;51.470;9.894;2022-12-07T00:37:41;14.88;;;9.50;;
25946;SDS011;13745;51.470;9.894;2022-12-07T00:40:26;15.52;;;9.32;;
25946;SDS011;13745;51.470;9.894;2022-12-07T00:43:12;16.35;;;10.13;;
25946;SDS011;13745;51.470;9.894;2022-12-07T00:45:58;17.60;;;10.30;;
25946;SDS011;13745;51.470;9.894;2022-12-07T00:48:44;18.55;;;9.73;;
25946;SDS011;13745;51.470;9.894;2022-12-07T00:51:30;18.33;;;10.05;;
25946;SDS011;13745;51.470;9.894;2022-12-07T00:54:17;14.85;;;10.05;;
25946;SDS011;13745;51.470;9.894;2022-12-07T00:57:03;16.02;;;10.30;;
25946;SDS011;13745;51.470;9.894;2022-12-07T00:59:48;14.90;;;9.25;;
25946;SDS011;13745;51.470;9.894;2022-12-07T01:02:34;17.27;;;10.13;;
25946;SDS011;13745;51.470;9.894;2022-12-07T01:05:20;17.40;;;9.88;;
25946;SDS011;13745;51.470;9.894;2022-12-07T01:08:06;18.67;;;10.23;;
25946;SDS011;13745;51.470;9.894;2022-12-07T01:10:58;16.02;;;10.80;;
25946;SDS011;13745;51.470;9.894;2022-12-07T01:13:46;17.83;;;10.07;;
25946;SDS011;13745;51.470;9.894;2022-12-07T01:16:34;15.88;;;9.18;;
25946;SDS011;13745;51.470;9.894;2022-12-07T01:19:20;19.63;;;10.70;;
25946;SDS011;13745;51.470;9.894;2022-12-07T01:22:06;19.02;;;10.32;;
25946;SDS011;13745;51.470;9.894;2022-12-07T01:24:51;15.45;;;10.18;;
25946;SDS011;13745;51.470;9.894;2022-12-07T01:27:38;33.67;;;12.27;;
25946;SDS011;13745;51.470;9.894;2022-12-07T01:30:24;15.20;;;10.02;;
25946;SDS011;13745;51.470;9.894;2022-12-07T01:33:10;17.77;;;11.18;;
25946;SDS011;13745;51.470;9.894;2022-12-07T01:36:00;17.45;;;10.73;;
25946;SDS011;13745;51.470;9.894;2022-12-07T01:38:47;16.70;;;10.95;;
25946;SDS011;13745;51.470;9.894;2022-12-07T01:41:36;15.98;;;9.98;;
25946;SDS011;13745;51.470;9.894;2022-12-07T01:44:26;18.40;;;11.50;;
25946;SDS011;13745;51.470;9.894;2022-12-07T01:47:13;19.00;;;10.15;;
25946;SDS011;13745;51.470;9.894;2022-12-07T01:49:59;19.08;;;10.55;;
25946;SDS011;13745;51.470;9.894;2022-12-07T01:52:45;13.52;;;9.00;;
25946;SDS011;13745;51.470;9.894;2022-12-07T01:55:33;17.15;;;10.43;;
25946;SDS011;13745;51.470;9.894;2022-12-07T01:58:22;15.88;;;10.15;;
25946;SDS011;13745;51.470;9.894;2022-12-07T02:01:10;15.52;;;9.57;;
25946;SDS011;13745;51.470;9.894;2022-12-07T02:03:56;14.77;;;9.35;;
25946;SDS011;13745;51.470;9.894;2022-12-07T02:06:43;14.57;;;9.52;;
25946;SDS011;13745;51.470;9.894;2022-12-07T02:09:30;17.98;;;9.52;;
25946;SDS011;13745;51.470;9.894;2022-12-07T02:12:16;18.73;;;9.68;;
25946;SDS011;13745;51.470;9.894;2022-12-07T02:15:02;15.30;;;9.95;;
25946;SDS011;13745;51.470;9.894;2022-12-07T02:17:51;17.38;;;10.35;;
25946;SDS011;13745;51.470;9.894;2022-12-07T02:20:47;17.42;;;10.68;;
25946;SDS011;13745;51.470;9.894;2022-12-07T02:23:46;14.95;;;9.70;;
25946;SDS011;13745;51.470;9.894;2022-12-07T02:26:55;13.60;;;7.78;;
25946;SDS011;13745;51.470;9.894;2022-12-07T02:29:57;16.33;;;9.43;;
25946;SDS011;13745;51.470;9.894;2022-12-07T02:32:48;19.42;;;10.85;;
25946;SDS011;13745;51.470;9.894;2022-12-07T02:35:40;15.13;;;9.82;;
25946;SDS011;13745;51.470;9.894;2022-12-07T02:38:29;17.17;;;9.95;;
25946;SDS011;13745;51.470;9.894;2022-12-07T02:41:20;14.88;;;9.57;;
25946;SDS011;13745;51.470;9.894;2022-12-07T02:44:10;16.83;;;10.45;;
25946;SDS011;13745;51.470;9.894;2022-12-07T02:47:01;21.88;;;11.23;;
25946;SDS011;13745;51.470;9.894;2022-12-07T02:49:50;19.85;;;12.73;;
25946;SDS011;13745;51.470;9.894;2022-12-07T02:52:37;17.75;;;10.40;;
25946;SDS011;13745;51.470;9.894;2022-12-07T02:55:24;20.08;;;11.60;;
25946;SDS011;13745;51.470;9.894;2022-12-07T02:58:20;18.30;;;11.27;;
25946;SDS011;13745;51.470;9.894;2022-12-07T03:01:15;20.48;;;11.50;;
25946;SDS011;13745;51.470;9.894;2022-12-07T03:04:14;20.88;;;11.82;;
25946;SDS011;13745;51.470;9.894;2022-12-07T03:07:11;19.80;;;11.57;;
25946;SDS011;13745;51.470;9.894;2022-12-07T03:10:07;21.40;;;11.82;;
25946;SDS011;13745;51.470;9.894;2022-12-07T03:13:02;19.23;;;11.00;;
25946;SDS011;13745;51.470;9.894;2022-12-07T03:15:51;22.25;;;12.27;;
25946;SDS011;13745;51.470;9.894;2022-12-07T03:18:43;15.93;;;11.35;;
25946;SDS011;13745;51.470;9.894;2022-12-07T03:21:36;19.90;;;12.00;;
25946;SDS011;13745;51.470;9.894;2022-12-07T03:24:24;18.52;;;11.52;;
25946;SDS011;13745;51.470;9.894;2022-12-07T03:27:21;19.38;;;11.60;;
25946;SDS011;13745;51.470;9.894;2022-12-07T03:30:10;20.00;;;10.80;;
25946;SDS011;13745;51.470;9.894;2022-12-07T03:33:01;15.10;;;10.02;;
25946;SDS011;13745;51.470;9.894;2022-12-07T03:35:52;17.50;;;10.70;;
25946;SDS011;13745;51.470;9.894;2022-12-07T03:38:46;17.00;;;10.57;;
25946;SDS011;13745;51.470;9.894;2022-12-07T03:41:36;16.73;;;9.88;;
25946;SDS011;13745;51.470;9.894;2022-12-07T03:44:23;16.05;;;9.88;;
25946;SDS011;13745;51.470;9.894;2022-12-07T03:47:11;18.13;;;10.13;;
25946;SDS011;13745;51.470;9.894;2022-12-07T03:50:02;16.80;;;10.00;;
25946;SDS011;13745;51.470;9.894;2022-12-07T03:52:55;17.63;;;10.75;;
25946;SDS011;13745;51.470;9.894;2022-12-07T03:55:45;16.33;;;9.90;;
25946;SDS011;13745;51.470;9.894;2022-12-07T03:58:33;18.67;;;9.65;;
25946;SDS011;13745;51.470;9.894;2022-12-07T04:01:20;17.67;;;10.82;;
25946;SDS011;13745;51.470;9.894;2022-12-07T04:04:06;17.55;;;11.23;;
25946;SDS011;13745;51.470;9.894;2022-12-07T04:06:51;22.08;;;11.13;;
25946;SDS011;13745;51.470;9.894;2022-12-07T04:09:37;21.08;;;11.38;;
25946;SDS011;13745;51.470;9.894;2022-12-07T04:12:24;20.38;;;12.15;;
25946;SDS011;13745;51.470;9.894;2022-12-07T04:15:10;21.33;;;12.02;;
25946;SDS011;13745;51.470;9.894;2022-12-07T04:17:56;22.33;;;12.20;;
25946;SDS011;13745;51.470;9.894;2022-12-07T04:20:42;21.15;;;12.15;;
25946;SDS011;13745;51.470;9.894;2022-12-07T04:23:28;23.58;;;12.80;;
25946;SDS011;13745;51.470;9.894;2022-12-07T04:26:14;28.25;;;13.95;;
25946;SDS011;13745;51.470;9.894;2022-12-07T04:29:01;26.05;;;13.85;;
25946;SDS011;13745;51.470;9.894;2022-12-07T04:31:47;23.40;;;12.98;;
25946;SDS011;13745;51.470;9.894;2022-12-07T04:34:33;22.20;;;12.45;;
25946;SDS011;13745;51.470;9.894;2022-12-07T04:37:19;27.08;;;13.02;;
25946;SDS011;13745;51.470;9.894;2022-12-07T04:40:05;28.75;;;14.02;;
25946;SDS011;13745;51.470;9.894;2022-12-07T04:42:52;22.35;;;12.07;;
25946;SDS011;13745;51.470;9.894;2022-12-07T04:45:39;20.88;;;12.43;;
25946;SDS011;13745;51.470;9.894;2022-12-07T04:48:31;24.67;;;13.93;;
25946;SDS011;13745;51.470;9.894;2022-12-07T04:51:18;23.20;;;13.90;;
25946;SDS011;13745;51.470;9.894;2022-12-07T04:54:05;27.80;;;15.30;;
25946;SDS011;13745;51.470;9.894;2022-12-07T04:56:51;25.42;;;14.10;;
25946;SDS011;13745;51.470;9.894;2022-12-07T04:59:37;24.58;;;14.85;;
25946;SDS011;13745;51.470;9.894;2022-12-07T05:02:24;28.08;;;15.13;;
25946;SDS011;13745;51.470;9.894;2022-12-07T05:05:10;27.80;;;15.35;;
25946;SDS011;13745;51.470;9.894;2022-12-07T05:07:56;29.17;;;15.48;;
25946;SDS011;13745;51.470;9.894;2022-12-07T05:10:42;25.05;;;15.45;;
25946;SDS011;13745;51.470;9.894;2022-12-07T05:13:27;23.42;;;14.23;;
25946;SDS011;13745;51.470;9.894;2022-12-07T05:16:13;28.75;;;15.13;;
25946;SDS011;13745;51.470;9.894;2022-12-07T05:19:00;22.27;;;14.35;;
25946;SDS011;13745;51.470;9.894;2022-12-07T05:21:46;22.67;;;14.38;;
25946;SDS011;13745;51.470;9.894;2022-12-07T05:24:32;18.50;;;11.43;;
25946;SDS011;13745;51.470;9.894;2022-12-07T05:27:18;21.58;;;13.45;;
25946;SDS011;13745;51.470;9.894;2022-12-07T05:30:04;23.63;;;12.68;;
25946;SDS011;13745;51.470;9.894;2022-12-07T05:32:50;22.50;;;12.75;;
25946;SDS011;13745;51.470;9.894;2022-12-07T05:35:37;22.15;;;12.75;;
25946;SDS011;13745;51.470;9.894;2022-12-07T05:38:24;19.35;;;12.23;;
25946;SDS011;13745;51.470;9.894;2022-12-07T05:41:11;23.45;;;13.35;;
25946;SDS011;13745;51.470;9.894;2022-12-07T05:44:13;21.67;;;11.93;;
25946;SDS011;13745;51.470;9.894;2022-12-07T05:46:59;26.55;;;14.05;;
25946;SDS011;13745;51.470;9.894;2022-12-07T05:49:45;25.23;;;12.95;;
25946;SDS011;13745;51.470;9.894;2022-12-07T05:52:32;23.30;;;12.88;;
25946;SDS011;13745;51.470;9.894;2022-12-07T05:55:18;25.25;;;10.40;;
25946;SDS011;13745;51.470;9.894;2022-12-07T05:58:03;25.40;;;12.95;;
25946;SDS011;13745;51.470;9.894;2022-12-07T06:03:52;19.90;;;11.13;;
25946;SDS011;13745;51.470;9.894;2022-12-07T06:06:38;21.42;;;12.10;;
25946;SDS011;13745;51.470;9.894;2022-12-07T06:09:26;24.45;;;12.88;;
25946;SDS011;13745;51.470;9.894;2022-12-07T06:12:13;25.58;;;13.38;;
25946;SDS011;13745;51.470;9.894;2022-12-07T06:15:17;25.05;;;12.20;;
25946;SDS011;13745;51.470;9.894;2022-12-07T06:18:03;23.23;;;13.00;;
25946;SDS011;13745;51.470;9.894;2022-12-07T06:20:49;22.92;;;12.95;;
25946;SDS011;13745;51.470;9.894;2022-12-07T06:23:34;24.80;;;12.07;;
25946;SDS011;13745;51.470;9.894;2022-12-07T06:26:22;17.58;;;11.35;;
25946;SDS011;13745;51.470;9.894;2022-12-07T06:29:07;21.20;;;11.73;;
25946;SDS011;13745;51.470;9.894;2022-12-07T06:31:53;23.30;;;11.27;;
25946;SDS011;13745;51.470;9.894;2022-12-07T06:34:39;20.80;;;11.02;;
25946;SDS011;13745;51.470;9.894;2022-12-07T06:37:25;17.23;;;10.15;;
25946;SDS011;13745;51.470;9.894;2022-12-07T06:40:11;20.55;;;10.98;;
25946;SDS011;13745;51.470;9.894;2022-12-07T06:42:58;19.05;;;10.73;;
25946;SDS011;13745;51.470;9.894;2022-12-07T06:45:44;21.38;;;10.23;;
25946;SDS011;13745;51.470;9.894;2022-12-07T06:48:30;18.90;;;10.45;;
25946;SDS011;13745;51.470;9.894;2022-12-07T06:51:16;17.85;;;10.45;;
25946;SDS011;13745;51.470;9.894;2022-12-07T06:54:02;18.88;;;9.45;;
25946;SDS011;13745;51.470;9.894;2022-12-07T06:56:48;18.48;;;9.35;;
25946;SDS011;13745;51.470;9.894;2022-12-07T06:59:35;16.00;;;9.57;;
25946;SDS011;13745;51.470;9.894;2022-12-07T07:02:21;18.83;;;9.63;;
25946;SDS011;13745;51.470;9.894;2022-12-07T07:05:06;18.67;;;9.95;;
25946;SDS011;13745;51.470;9.894;2022-12-07T07:07:52;17.48;;;10.07;;
25946;SDS011;13745;51.470;9.894;2022-12-07T07:10:38;19.85;;;10.40;;
25946;SDS011;13745;51.470;9.894;2022-12-07T07:13:24;20.15;;;10.15;;
25946;SDS011;13745;51.470;9.894;2022-12-07T07:16:11;17.73;;;9.40;;
25946;SDS011;13745;51.470;9.894;2022-12-07T07:18:58;14.55;;;8.70;;
25946;SDS011;13745;51.470;9.894;2022-12-07T07:21:43;15.40;;;8.98;;
25946;SDS011;13745;51.470;9.894;2022-12-07T07:24:29;17.92;;;9.35;;
25946;SDS011;13745;51.470;9.894;2022-12-07T07:27:15;19.92;;;9.55;;
25946;SDS011;13745;51.470;9.894;2022-12-07T07:30:00;12.48;;;7.85;;
25946;SDS011;13745;51.470;9.894;2022-12-07T07:32:47;13.40;;;8.35;;
25946;SDS011;13745;51.470;9.894;2022-12-07T07:35:34;16.75;;;9.68;;
25946;SDS011;13745;51.470;9.894;2022-12-07T07:38:20;13.65;;;7.78;;
25946;SDS011;13745;51.470;9.894;2022-12-07T07:41:05;13.23;;;7.57;;
25946;SDS011;13745;51.470;9.894;2022-12-07T07:43:51;15.38;;;7.72;;
25946;SDS011;13745;51.470;9.894;2022-12-07T07:46:37;17.50;;;8.80;;
25946;SDS011;13745;51.470;9.894;2022-12-07T07:49:24;15.00;;;7.85;;
25946;SDS011;13745;51.470;9.894;2022-12-07T07:52:11;11.90;;;6.90;;
25946;SDS011;13745;51.470;9.894;2022-12-07T07:54:56;13.63;;;7.78;;
25946;SDS011;13745;51.470;9.894;2022-12-07T07:57:42;17.02;;;8.20;;
25946;SDS011;13745;51.470;9.894;2022-12-07T08:00:28;13.48;;;7.15;;
25946;SDS011;13745;51.470;9.894;2022-12-07T08:03:14;17.25;;;7.40;;
25946;SDS011;13745;51.470;9.894;2022-12-07T08:06:01;9.35;;;5.88;;
25946;SDS011;13745;51.470;9.894;2022-12-07T08:08:47;11.60;;;6.60;;
25946;SDS011;13745;51.470;9.894;2022-12-07T08:11:32;11.57;;;7.05;;
25946;SDS011;13745;51.470;9.894;2022-12-07T08:14:18;12.48;;;6.80;;
25946;SDS011;13745;51.470;9.894;2022-12-07T08:17:04;12.35;;;6.38;;
25946;SDS011;13745;51.470;9.894;2022-12-07T08:19:50;13.98;;;6.05;;
25946;SDS011;13745;51.470;9.894;2022-12-07T08:22:37;11.68;;;5.30;;
25946;SDS011;13745;51.470;9.894;2022-12-07T08:25:23;11.73;;;5.72;;
25946;SDS011;13745;51.470;9.894;2022-12-07T08:28:08;10.75;;;5.93;;
25946;SDS011;13745;51.470;9.894;2022-12-07T08:30:58;14.52;;;5.35;;
25946;SDS011;13745;51.470;9.894;2022-12-07T08:33:44;15.23;;;5.53;;
25946;SDS011;13745;51.470;9.894;2022-12-07T08:36:31;11.88;;;5.15;;
25946;SDS011;13745;51.470;9.894;2022-12-07T08:39:18;9.73;;;5.82;;
25946;SDS011;13745;51.470;9.894;2022-12-07T08:42:04;12.65;;;5.47;;
25946;SDS011;13745;51.470;9.894;2022-12-07T08:44:50;12.02;;;5.43;;
25946;SDS011;13745;51.470;9.894;2022-12-07T08:47:37;12.55;;;6.38;;
25946;SDS011;13745;51.470;9.894;2022-12-07T08:50:25;14.10;;;5.55;;
25946;SDS011;13745;51.470;9.894;2022-12-07T08:53:12;7.25;;;4.63;;
25946;SDS011;13745;51.470;9.894;2022-12-07T08:55:59;10.10;;;5.55;;
25946;SDS011;13745;51.470;9.894;2022-12-07T08:58:45;15.68;;;5.22;;
25946;SDS011;13745;51.470;9.894;2022-12-07T09:01:31;14.48;;;5.25;;
25946;SDS011;13745;51.470;9.894;2022-12-07T09:04:16;9.27;;;5.85;;
25946;SDS011;13745;51.470;9.894;2022-12-07T09:07:02;13.00;;;6.22;;
25946;SDS011;13745;51.470;9.894;2022-12-07T09:09:49;9.85;;;4.57;;
25946;SDS011;13745;51.470;9.894;2022-12-07T09:12:36;11.70;;;5.63;;
25946;SDS011;13745;51.470;9.894;2022-12-07T09:15:22;12.55;;;5.47;;
25946;SDS011;13745;51.470;9.894;2022-12-07T09:18:07;8.55;;;4.93;;
25946;SDS011;13745;51.470;9.894;2022-12-07T09:20:53;10.15;;;4.25;;
25946;SDS011;13745;51.470;9.894;2022-12-07T09:23:40;7.20;;;4.75;;
25946;SDS011;13745;51.470;9.894;2022-12-07T09:26:27;11.27;;;4.75;;
25946;SDS011;13745;51.470;9.894;2022-12-07T09:29:14;5.85;;;3.95;;
25946;SDS011;13745;51.470;9.894;2022-12-07T09:32:00;11.50;;;4.32;;
25946;SDS011;13745;51.470;9.894;2022-12-07T09:34:45;6.28;;;3.60;;
25946;SDS011;13745;51.470;9.894;2022-12-07T09:37:31;6.95;;;4.07;;
25946;SDS011;13745;51.470;9.894;2022-12-07T09:40:19;4.72;;;3.55;;
25946;SDS011;13745;51.470;9.894;2022-12-07T09:43:10;8.18;;;3.50;;
25946;SDS011;13745;51.470;9.894;2022-12-07T09:46:00;7.55;;;3.75;;
25946;SDS011;13745;51.470;9.894;2022-12-07T09:48:47;5.65;;;3.60;;
25946;SDS011;13745;51.470;9.894;2022-12-07T09:51:34;7.57;;;3.20;;
25946;SDS011;13745;51.470;9.894;2022-12-07T09:54:20;5.35;;;3.80;;
25946;SDS011;13745;51.470;9.894;2022-12-07T09:57:07;4.10;;;2.97;;
25946;SDS011;13745;51.470;9.894;2022-12-07T09:59:53;4.82;;;2.92;;
25946;SDS011;13745;51.470;9.894;2022-12-07T10:02:41;4.60;;;3.22;;
25946;SDS011;13745;51.470;9.894;2022-12-07T10:05:31;3.67;;;3.17;;
25946;SDS011;13745;51.470;9.894;2022-12-07T10:08:21;4.40;;;3.08;;
25946;SDS011;13745;51.470;9.894;2022-12-07T10:11:07;5.38;;;3.15;;
25946;SDS011;13745;51.470;9.894;2022-12-07T10:13:54;5.82;;;3.20;;
25946;SDS011;13745;51.470;9.894;2022-12-07T10:16:40;4.60;;;4.10;;
25946;SDS011;13745;51.470;9.894;2022-12-07T10:19:29;5.30;;;2.33;;
25946;SDS011;13745;51.470;9.894;2022-12-07T10:22:16;3.80;;;2.65;;
25946;SDS011;13745;51.470;9.894;2022-12-07T10:25:08;4.18;;;2.30;;
25946;SDS011;13745;51.470;9.894;2022-12-07T10:28:15;4.28;;;2.85;;
25946;SDS011;13745;51.470;9.894;2022-12-07T10:31:03;5.68;;;3.15;;
25946;SDS011;13745;51.470;9.894;2022-12-07T10:34:02;6.40;;;2.92;;
25946;SDS011;13745;51.470;9.894;2022-12-07T10:36:49;5.60;;;3.10;;
25946;SDS011;13745;51.470;9.894;2022-12-07T10:39:40;5.72;;;3.90;;
25946;SDS011;13745;51.470;9.894;2022-12-07T10:42:28;3.47;;;2.17;;
25946;SDS011;13745;51.470;9.894;2022-12-07T10:45:15;4.78;;;3.00;;
25946;SDS011;13745;51.470;9.894;2022-12-07T10:48:04;7.30;;;2.80;;
25946;SDS011;13745;51.470;9.894;2022-12-07T10:50:58;3.80;;;2.90;;
25946;SDS011;13745;51.470;9.894;2022-12-07T10:53:58;3.45;;;2.10;;
25946;SDS011;13745;51.470;9.894;2022-12-07T10:57:01;7.22;;;2.80;;
25946;SDS011;13745;51.470;9.894;2022-12-07T11:00:04;4.50;;;2.40;;
25946;SDS011;13745;51.470;9.894;2022-12-07T11:02:59;4.93;;;2.95;;
25946;SDS011;13745;51.470;9.894;2022-12-07T11:06:05;5.47;;;2.33;;
25946;SDS011;13745;51.470;9.894;2022-12-07T11:09:12;4.65;;;2.65;;
25946;SDS011;13745;51.470;9.894;2022-12-07T11:12:10;3.53;;;2.28;;
25946;SDS011;13745;51.470;9.894;2022-12-07T11:15:09;6.03;;;2.78;;
25946;SDS011;13745;51.470;9.894;2022-12-07T11:18:03;4.30;;;2.10;;
25946;SDS011;13745;51.470;9.894;2022-12-07T11:20:56;3.67;;;2.30;;
25946;SDS011;13745;51.470;9.894;2022-12-07T11:23:53;5.65;;;2.50;;
25946;SDS011;13745;51.470;9.894;2022-12-07T11:26:58;4.35;;;2.17;;
25946;SDS011;13745;51.470;9.894;2022-12-07T11:29:59;4.40;;;2.28;;
25946;SDS011;13745;51.470;9.894;2022-12-07T11:33:01;5.43;;;2.00;;
25946;SDS011;13745;51.470;9.894;2022-12-07T11:36:00;6.82;;;3.35;;
25946;SDS011;13745;51.470;9.894;2022-12-07T11:38:55;3.13;;;2.33;;
25946;SDS011;13745;51.470;9.894;2022-12-07T11:41:45;5.22;;;2.40;;
25946;SDS011;13745;51.470;9.894;2022-12-07T11:44:36;8.20;;;3.20;;
25946;SDS011;13745;51.470;9.894;2022-12-07T11:47:30;5.47;;;2.80;;
25946;SDS011;13745;51.470;9.894;2022-12-07T11:50:25;5.65;;;2.55;;
25946;SDS011;13745;51.470;9.894;2022-12-07T11:53:14;5.15;;;2.67;;
25946;SDS011;13745;51.470;9.894;2022-12-07T11:56:06;4.20;;;2.08;;
25946;SDS011;13745;51.470;9.894;2022-12-07T11:58:57;6.93;;;2.80;;
25946;SDS011;13745;51.470;9.894;2022-12-07T12:01:52;7.13;;;2.50;;
25946;SDS011;13745;51.470;9.894;2022-12-07T12:04:50;10.82;;;2.92;;
25946;SDS011;13745;51.470;9.894;2022-12-07T12:07:41;6.57;;;2.67;;
25946;SDS011;13745;51.470;9.894;2022-12-07T12:10:30;7.63;;;2.30;;
25946;SDS011;13745;51.470;9.894;2022-12-07T12:13:43;8.50;;;2.55;;
25946;SDS011;13745;51.470;9.894;2022-12-07T12:19:41;5.15;;;2.42;;
25946;SDS011;13745;51.470;9.894;2022-12-07T12:22:32;4.30;;;2.50;;
25946;SDS011;13745;51.470;9.894;2022-12-07T12:25:23;11.35;;;3.30;;
25946;SDS011;13745;51.470;9.894;2022-12-07T12:28:18;10.35;;;3.55;;
25946;SDS011;13745;51.470;9.894;2022-12-07T12:31:11;9.00;;;3.22;;
25946;SDS011;13745;51.470;9.894;2022-12-07T12:33:59;10.32;;;3.28;;
25946;SDS011;13745;51.470;9.894;2022-12-07T12:36:48;8.88;;;2.95;;
25946;SDS011;13745;51.470;9.894;2022-12-07T12:39:34;6.38;;;2.90;;
25946;SDS011;13745;51.470;9.894;2022-12-07T12:42:20;6.32;;;3.30;;
25946;SDS011;13745;51.470;9.894;2022-12-07T12:45:19;8.13;;;2.63;;
25946;SDS011;13745;51.470;9.894;2022-12-07T12:51:35;19.10;;;5.60;;
25946;SDS011;13745;51.470;9.894;2022-12-07T12:54:24;7.55;;;2.72;;
25946;SDS011;13745;51.470;9.894;2022-12-07T12:57:12;5.15;;;3.15;;
25946;SDS011;13745;51.470;9.894;2022-12-07T13:03:01;7.30;;;2.40;;
25946;SDS011;13745;51.470;9.894;2022-12-07T13:05:46;9.27;;;2.80;;
25946;SDS011;13745;51.470;9.894;2022-12-07T13:08:32;13.73;;;3.63;;
25946;SDS011;13745;51.470;9.894;2022-12-07T13:11:25;9.82;;;3.45;;
25946;SDS011;13745;51.470;9.894;2022-12-07T13:17:56;11.38;;;2.85;;
25946;SDS011;13745;51.470;9.894;2022-12-07T13:20:47;7.15;;;2.28;;
25946;SDS011;13745;51.470;9.894;2022-12-07T13:23:38;9.45;;;2.72;;
25946;SDS011;13745;51.470;9.894;2022-12-07T13:26:41;8.85;;;3.45;;
25946;SDS011;13745;51.470;9.894;2022-12-07T13:29:27;8.75;;;2.35;;
25946;SDS011;13745;51.470;9.894;2022-12-07T13:32:23;8.80;;;2.95;;
25946;SDS011;13745;51.470;9.894;2022-12-07T13:35:27;7.38;;;2.80;;
25946;SDS011;13745;51.470;9.894;2022-12-07T13:38:20;5.35;;;2.97;;
25946;SDS011;13745;51.470;9.894;2022-12-07T13:41:14;12.93;;;4.25;;
25946;SDS011;13745;51.470;9.894;2022-12-07T13:44:03;11.18;;;3.70;;
25946;SDS011;13745;51.470;9.894;2022-12-07T13:49:47;5.03;;;2.55;;
25946;SDS011;13745;51.470;9.894;2022-12-07T13:52:34;9.95;;;3.22;;
25946;SDS011;13745;51.470;9.894;2022-12-07T13:55:29;7.63;;;3.08;;
25946;SDS011;13745;51.470;9.894;2022-12-07T13:58:15;8.45;;;3.08;;
25946;SDS011;13745;51.470;9.894;2022-12-07T14:01:03;16.90;;;3.15;;
25946;SDS011;13745;51.470;9.894;2022-12-07T14:03:50;4.57;;;2.60;;
25946;SDS011;13745;51.470;9.894;2022-12-07T14:06:35;9.38;;;3.10;;
25946;SDS011;13745;51.470;9.894;2022-12-07T14:09:22;6.97;;;2.65;;
25946;SDS011;13745;51.470;9.894;2022-12-07T14:12:08;8.48;;;2.97;;
25946;SDS011;13745;51.470;9.894;2022-12-07T14:14:57;9.52;;;3.67;;
25946;SDS011;13745;51.470;9.894;2022-12-07T14:17:50;6.75;;;3.35;;
25946;SDS011;13745;51.470;9.894;2022-12-07T14:20:37;11.68;;;3.67;;
25946;SDS011;13745;51.470;9.894;2022-12-07T14:23:25;11.32;;;4.88;;
25946;SDS011;13745;51.470;9.894;2022-12-07T14:26:12;8.88;;;3.70;;
25946;SDS011;13745;51.470;9.894;2022-12-07T14:32:21;6.10;;;3.13;;
25946;SDS011;13745;51.470;9.894;2022-12-07T14:35:14;9.35;;;3.75;;
25946;SDS011;13745;51.470;9.894;2022-12-07T14:38:01;10.75;;;4.93;;
25946;SDS011;13745;51.470;9.894;2022-12-07T14:40:47;8.63;;;2.90;;
25946;SDS011;13745;51.470;9.894;2022-12-07T14:43:34;8.38;;;3.05;;
25946;SDS011;13745;51.470;9.894;2022-12-07T14:46:19;6.38;;;3.83;;
25946;SDS011;13745;51.470;9.894;2022-12-07T14:49:05;10.15;;;4.13;;
25946;SDS011;13745;51.470;9.894;2022-12-07T14:51:52;10.18;;;4.32;;
25946;SDS011;13745;51.470;9.894;2022-12-07T14:54:38;7.38;;;3.35;;
25946;SDS011;13745;51.470;9.894;2022-12-07T14:57:24;14.85;;;5.20;;
25946;SDS011;13745;51.470;9.894;2022-12-07T15:00:13;10.77;;;3.35;;
25946;SDS011;13745;51.470;9.894;2022-12-07T15:03:01;13.55;;;3.13;;
25946;SDS011;13745;51.470;9.894;2022-12-07T15:05:46;7.38;;;3.38;;
25946;SDS011;13745;51.470;9.894;2022-12-07T15:08:33;7.10;;;3.53;;
25946;SDS011;13745;51.470;9.894;2022-12-07T15:11:19;9.18;;;3.63;;
25946;SDS011;13745;51.470;9.894;2022-12-07T15:14:05;12.18;;;3.97;;
25946;SDS011;13745;51.470;9.894;2022-12-07T15:16:55;10.82;;;3.45;;
25946;SDS011;13745;51.470;9.894;2022-12-07T15:19:40;13.32;;;5.43;;
25946;SDS011;13745;51.470;9.894;2022-12-07T15:22:26;9.82;;;3.30;;
25946;SDS011;13745;51.470;9.894;2022-12-07T15:25:15;6.60;;;3.70;;
25946;SDS011;13745;51.470;9.894;2022-12-07T15:28:01;8.35;;;3.53;;
25946;SDS011;13745;51.470;9.894;2022-12-07T15:30:47;10.02;;;3.40;;
25946;SDS011;13745;51.470;9.894;2022-12-07T15:33:33;7.45;;;3.38;;
25946;SDS011;13745;51.470;9.894;2022-12-07T15:36:20;10.70;;;3.83;;
25946;SDS011;13745;51.470;9.894;2022-12-07T15:39:07;6.68;;;2.90;;
25946;SDS011;13745;51.470;9.894;2022-12-07T15:41:54;10.93;;;3.95;;
25946;SDS011;13745;51.470;9.894;2022-12-07T15:44:40;6.75;;;3.40;;
25946;SDS011;13745;51.470;9.894;2022-12-07T15:47:43;8.45;;;3.70;;
25946;SDS011;13745;51.470;9.894;2022-12-07T15:50:29;7.15;;;4.18;;
25946;SDS011;13745;51.470;9.894;2022-12-07T15:53:15;5.38;;;3.65;;
25946;SDS011;13745;51.470;9.894;2022-12-07T15:56:01;10.65;;;4.00;;
25946;SDS011;13745;51.470;9.894;2022-12-07T15:58:53;13.25;;;4.40;;
25946;SDS011;13745;51.470;9.894;2022-12-07T16:01:41;11.98;;;4.35;;
25946;SDS011;13745;51.470;9.894;2022-12-07T16:04:27;10.43;;;5.97;;
25946;SDS011;13745;51.470;9.894;2022-12-07T16:07:13;12.45;;;5.75;;
25946;SDS011;13745;51.470;9.894;2022-12-07T16:10:00;13.77;;;5.47;;
25946;SDS011;13745;51.470;9.894;2022-12-07T16:12:45;8.50;;;4.50;;
25946;SDS011;13745;51.470;9.894;2022-12-07T16:15:33;17.98;;;6.20;;
25946;SDS011;13745;51.470;9.894;2022-12-07T16:18:22;10.57;;;4.78;;
25946;SDS011;13745;51.470;9.894;2022-12-07T16:21:08;11.75;;;5.30;;
25946;SDS011;13745;51.470;9.894;2022-12-07T16:23:53;9.13;;;4.85;;
25946;SDS011;13745;51.470;9.894;2022-12-07T16:26:42;12.77;;;5.97;;
25946;SDS011;13745;51.470;9.894;2022-12-07T16:29:29;8.27;;;5.50;;
25946;SDS011;13745;51.470;9.894;2022-12-07T16:32:16;8.52;;;5.03;;
25946;SDS011;13745;51.470;9.894;2022-12-07T16:35:02;10.57;;;5.90;;
25946;SDS011;13745;51.470;9.894;2022-12-07T16:37:48;14.98;;;5.63;;
25946;SDS011;13745;51.470;9.894;2022-12-07T16:40:34;13.30;;;5.53;;
25946;SDS011;13745;51.470;9.894;2022-12-07T16:43:20;19.00;;;7.55;;
25946;SDS011;13745;51.470;9.894;2022-12-07T16:46:05;12.48;;;6.00;;
25946;SDS011;13745;51.470;9.894;2022-12-07T16:48:53;18.98;;;7.43;;
25946;SDS011;13745;51.470;9.894;2022-12-07T16:51:39;10.10;;;5.47;;
25946;SDS011;13745;51.470;9.894;2022-12-07T16:54:26;10.75;;;5.22;;
25946;SDS011;13745;51.470;9.894;2022-12-07T16:57:14;11.27;;;5.40;;
25946;SDS011;13745;51.470;9.894;2022-12-07T17:00:01;14.82;;;5.57;;
25946;SDS011;13745;51.470;9.894;2022-12-07T17:02:48;13.68;;;5.75;;
25946;SDS011;13745;51.470;9.894;2022-12-07T17:05:38;14.27;;;6.07;;